createdAt,value
2023-04-01T00:00:17.603Z,57.6
2023-04-01T00:01:19.605Z,57.5
2023-04-01T00:02:21.140Z,57.5
2023-04-01T00:03:22.878Z,57.6
2023-04-01T00:04:24.493Z,57.8
2023-04-01T00:05:25.443Z,58.1
2023-04-01T00:06:26.634Z,58.2
2023-04-01T00:07:30.595Z,58.2
2023-04-01T00:08:29.364Z,58.3
2023-04-01T00:09:30.394Z,58.3
2023-04-01T00:10:31.405Z,58.5
2023-04-01T00:11:32.361Z,58.3
2023-04-01T00:12:33.484Z,58.2
2023-04-01T00:13:34.407Z,58.1
2023-04-01T00:14:35.382Z,57.9
2023-04-01T00:15:36.676Z,57.7
2023-04-01T00:16:38.891Z,57.6
2023-04-01T00:17:40.415Z,57.6
2023-04-01T00:18:41.603Z,57.6
2023-04-01T00:19:42.688Z,58
2023-04-01T00:20:44.421Z,58.1
2023-04-01T00:21:45.460Z,58.1
2023-04-01T00:22:46.421Z,58.2
2023-04-01T00:23:47.338Z,58.1
2023-04-01T00:24:48.806Z,58.1
2023-04-01T00:25:50.523Z,58.4
2023-04-01T00:26:51.463Z,58.3
2023-04-01T00:27:52.480Z,58.4
2023-04-01T00:28:53.407Z,58.1
2023-04-01T00:29:54.457Z,58.1
2023-04-01T00:30:55.423Z,58.2
2023-04-01T00:31:56.516Z,58.6
2023-04-01T00:32:57.661Z,59
2023-04-01T00:33:58.450Z,59.3
2023-04-01T00:34:59.419Z,59.3
2023-04-01T00:36:00.522Z,59.6
2023-04-01T00:37:01.484Z,59.5
2023-04-01T00:38:02.409Z,59.6
2023-04-01T00:39:03.476Z,59.6
2023-04-01T00:40:04.404Z,59.5
2023-04-01T00:41:05.426Z,59.2
2023-04-01T00:42:06.466Z,59.2
2023-04-01T00:43:07.474Z,59.4
2023-04-01T00:44:08.446Z,59.5
2023-04-01T00:45:09.426Z,59.3
2023-04-01T00:46:10.612Z,59.1
2023-04-01T00:47:12.191Z,59
2023-04-01T00:48:13.656Z,59.2
2023-04-01T00:49:14.427Z,59.2
2023-04-01T00:50:15.412Z,58.8
2023-04-01T00:51:16.354Z,58.7
2023-04-01T00:52:17.512Z,58.3
2023-04-01T00:53:18.411Z,58.2
2023-04-01T00:54:19.375Z,58.1
2023-04-01T00:55:20.392Z,58
2023-04-01T00:56:22.123Z,58.2
2023-04-01T00:57:23.582Z,58.3
2023-04-01T00:58:24.468Z,58.5
2023-04-01T00:59:25.417Z,58.7
2023-04-01T01:00:26.450Z,58.9
2023-04-01T01:01:27.520Z,59.2
2023-04-01T01:02:29.143Z,59
2023-04-01T01:03:30.619Z,58.8
2023-04-01T01:04:31.412Z,58.6
2023-04-01T01:05:34.259Z,58.5
2023-04-01T01:06:33.606Z,58.4
2023-04-01T01:07:35.126Z,58.5
2023-04-01T01:08:36.666Z,58.3
2023-04-01T01:09:37.430Z,58.2
2023-04-01T01:10:38.466Z,58.3
2023-04-01T01:11:43.406Z,58
2023-04-01T01:12:40.496Z,58.2
2023-04-01T01:13:41.426Z,58
2023-04-01T01:14:42.469Z,57.7
2023-04-01T01:15:43.488Z,57.7
2023-04-01T01:16:44.558Z,57.7
2023-04-01T01:17:45.731Z,57.8
2023-04-01T01:18:47.706Z,57.7
2023-04-01T01:19:49.550Z,57.6
2023-04-01T01:20:50.439Z,57.5
2023-04-01T01:21:51.504Z,57.4
2023-04-01T01:22:52.547Z,57.5
2023-04-01T01:23:53.405Z,57.6
2023-04-01T01:24:54.447Z,57.7
2023-04-01T01:25:55.454Z,57.9
2023-04-01T01:26:56.465Z,57.8
2023-04-01T01:27:57.558Z,57.9
2023-04-01T01:28:58.405Z,58.1
2023-04-01T01:29:59.449Z,58.3
2023-04-01T01:31:00.536Z,58.4
2023-04-01T01:32:01.467Z,58.3
2023-04-01T01:33:02.638Z,58.2
2023-04-01T01:34:03.427Z,58.3
2023-04-01T01:35:04.478Z,58.5
2023-04-01T01:36:05.548Z,58.8
2023-04-01T01:37:06.401Z,59
2023-04-01T01:38:07.564Z,58.8
2023-04-01T01:39:08.446Z,59
2023-04-01T01:40:09.505Z,59.3
2023-04-01T01:41:10.466Z,59.6
2023-04-01T01:42:11.525Z,59.6
2023-04-01T01:43:12.533Z,59.9
2023-04-01T01:44:13.449Z,59.8
2023-04-01T01:45:14.486Z,59.7
2023-04-01T01:46:15.421Z,59.5
2023-04-01T01:47:16.444Z,59.2
2023-04-01T01:48:17.803Z,59.1
2023-04-01T01:49:20.163Z,59.3
2023-04-01T01:50:21.486Z,59.4
2023-04-01T01:51:22.481Z,59.5
2023-04-01T01:52:23.484Z,59.5
2023-04-01T01:53:24.544Z,59.6
2023-04-01T01:54:25.636Z,59.5
2023-04-01T01:55:26.466Z,59.5
2023-04-01T01:56:27.445Z,59.5
2023-04-01T01:57:28.450Z,59.7
2023-04-01T01:58:29.483Z,59.9
2023-04-01T01:59:30.486Z,59.9
2023-04-01T02:00:31.478Z,59.7
2023-04-01T02:01:32.499Z,59.2
2023-04-01T02:02:33.494Z,59.3
2023-04-01T02:03:35.329Z,59.2
2023-04-01T02:04:36.513Z,59.2
2023-04-01T02:05:37.489Z,59
2023-04-01T02:06:38.557Z,58.9
2023-04-01T02:07:39.451Z,58.8
2023-04-01T02:08:40.530Z,58.7
2023-04-01T02:09:41.493Z,58.5
2023-04-01T02:10:42.403Z,58.3
2023-04-01T02:11:43.369Z,58.4
2023-04-01T02:12:44.485Z,58.4
2023-04-01T02:13:45.499Z,58.3
2023-04-01T02:14:46.482Z,58.3
2023-04-01T02:15:47.588Z,58.4
2023-04-01T02:16:48.462Z,58.1
2023-04-01T02:17:49.608Z,58.3
2023-04-01T02:18:50.703Z,58.3
2023-04-01T02:19:51.546Z,58.2
2023-04-01T02:20:52.404Z,58.2
2023-04-01T02:21:53.530Z,58.3
2023-04-01T02:22:54.521Z,58.3
2023-04-01T02:23:55.536Z,58.1
2023-04-01T02:24:56.522Z,58
2023-04-01T02:25:57.430Z,58.2
2023-04-01T02:26:58.564Z,58.2
2023-04-01T02:27:59.459Z,58.2
2023-04-01T02:29:00.584Z,58.7
2023-04-01T02:30:01.480Z,59.2
2023-04-01T02:31:02.808Z,59.4
2023-04-01T02:32:04.363Z,59.3
2023-04-01T02:33:05.583Z,59.2
2023-04-01T02:34:06.700Z,59.3
2023-04-01T02:35:08.471Z,59.1
2023-04-01T02:36:09.537Z,58.7
2023-04-01T02:37:10.450Z,58.4
2023-04-01T02:38:11.482Z,58.3
2023-04-01T02:39:12.521Z,58
2023-04-01T02:40:13.463Z,58.1
2023-04-01T02:41:14.464Z,58
2023-04-01T02:42:15.546Z,57.8
2023-04-01T02:43:16.502Z,57.8
2023-04-01T02:44:17.500Z,57.8
2023-04-01T02:45:18.464Z,57.8
2023-04-01T02:46:19.565Z,57.9
2023-04-01T02:47:20.636Z,58.2
2023-04-01T02:48:21.643Z,58.3
2023-04-01T02:49:22.584Z,57.6
2023-04-01T02:50:23.446Z,58.1
2023-04-01T02:51:24.489Z,58.2
2023-04-01T02:52:25.429Z,58.3
2023-04-01T02:53:26.449Z,58.6
2023-04-01T02:54:27.569Z,59
2023-04-01T02:55:28.493Z,59.4
2023-04-01T02:56:29.493Z,59.6
2023-04-01T02:57:30.523Z,59.6
2023-04-01T02:58:31.469Z,59.7
2023-04-01T02:59:32.540Z,59.8
2023-04-01T03:00:33.491Z,60
2023-04-01T03:01:34.647Z,60
2023-04-01T03:02:35.630Z,59.9
2023-04-01T03:03:36.681Z,59.9
2023-04-01T03:04:38.127Z,60
2023-04-01T03:05:39.500Z,60.1
2023-04-01T03:06:40.503Z,60.2
2023-04-01T03:07:41.755Z,60
2023-04-01T03:08:42.498Z,59.8
2023-04-01T03:09:43.566Z,59.6
2023-04-01T03:10:44.482Z,59.5
2023-04-01T03:11:45.509Z,59.1
2023-04-01T03:12:46.471Z,58.8
2023-04-01T03:13:47.509Z,58.8
2023-04-01T03:14:48.547Z,58.8
2023-04-01T03:15:49.514Z,58.8
2023-04-01T03:16:50.558Z,58.8
2023-04-01T03:17:51.789Z,58.7
2023-04-01T03:18:53.595Z,59.2
2023-04-01T03:19:54.548Z,59.6
2023-04-01T03:20:55.572Z,59.9
2023-04-01T03:21:56.494Z,60.1
2023-04-01T03:22:57.651Z,59.9
2023-04-01T03:23:59.271Z,59.9
2023-04-01T03:25:00.566Z,59.8
2023-04-01T03:26:01.483Z,59.7
2023-04-01T03:27:02.743Z,59.5
2023-04-01T03:28:03.483Z,59.6
2023-04-01T03:29:04.505Z,59.5
2023-04-01T03:30:05.786Z,59.4
2023-04-01T03:31:06.550Z,59.3
2023-04-01T03:32:07.496Z,59.4
2023-04-01T03:33:08.532Z,59.5
2023-04-01T03:34:09.570Z,59.5
2023-04-01T03:35:10.563Z,59.4
2023-04-01T03:36:11.434Z,59.4
2023-04-01T03:37:12.596Z,59.5
2023-04-01T03:38:13.470Z,59.7
2023-04-01T03:39:14.444Z,59.8
2023-04-01T03:40:15.682Z,59.7
2023-04-01T03:41:16.528Z,59.8
2023-04-01T03:42:17.528Z,60.1
2023-04-01T03:43:18.530Z,60.2
2023-04-01T03:44:19.568Z,60.6
2023-04-01T03:45:20.503Z,60.8
2023-04-01T03:46:21.758Z,60.9
2023-04-01T03:47:22.499Z,60.9
2023-04-01T03:48:23.502Z,60.3
2023-04-01T03:49:24.542Z,60.7
2023-04-01T03:50:25.544Z,60.8
2023-04-01T03:51:26.522Z,60.7
2023-04-01T03:52:27.481Z,60.9
2023-04-01T03:53:28.608Z,60.4
2023-04-01T03:54:29.463Z,60.5
2023-04-01T03:55:31.156Z,61.2
2023-04-01T03:56:31.579Z,61.5
2023-04-01T03:57:32.808Z,61.6
2023-04-01T03:58:34.464Z,61.6
2023-04-01T03:59:35.564Z,61.6
2023-04-01T04:00:36.625Z,61.6
2023-04-01T04:01:37.605Z,61.6
2023-04-01T04:02:38.515Z,61.7
2023-04-01T04:03:39.642Z,61.6
2023-04-01T04:04:40.541Z,61.7
2023-04-01T04:05:41.936Z,61.8
2023-04-01T04:06:43.784Z,62.1
2023-04-01T04:07:45.585Z,62.4
2023-04-01T04:08:46.516Z,62.3
2023-04-01T04:09:48.644Z,62.2
2023-04-01T04:10:49.594Z,62.1
2023-04-01T04:11:50.588Z,61.9
2023-04-01T04:12:51.588Z,61.9
2023-04-01T04:13:52.547Z,61.8
2023-04-01T04:14:53.548Z,61.9
2023-04-01T04:15:54.789Z,62.1
2023-04-01T04:16:55.572Z,62
2023-04-01T04:17:56.734Z,62
2023-04-01T04:18:57.504Z,62
2023-04-01T04:19:58.573Z,62.2
2023-04-01T04:21:00.619Z,62.6
2023-04-01T04:22:01.913Z,62.7
2023-04-01T04:23:03.622Z,62.6
2023-04-01T04:24:04.640Z,62.6
2023-04-01T04:25:05.748Z,62.4
2023-04-01T04:26:07.498Z,62.4
2023-04-01T04:27:08.487Z,62.6
2023-04-01T04:28:09.533Z,62.5
2023-04-01T04:29:11.367Z,62.7
2023-04-01T04:30:12.619Z,62.6
2023-04-01T04:31:13.658Z,62.6
2023-04-01T04:32:14.604Z,62.7
2023-04-01T04:33:15.854Z,62.5
2023-04-01T04:34:16.947Z,63.3
2023-04-01T04:35:18.665Z,63.3
2023-04-01T04:36:19.773Z,63.5
2023-04-01T04:37:20.525Z,63.6
2023-04-01T04:38:21.787Z,63.6
2023-04-01T04:39:23.293Z,63.4
2023-04-01T04:40:24.595Z,63.4
2023-04-01T04:41:25.570Z,63.5
2023-04-01T04:42:26.552Z,63.6
2023-04-01T04:43:27.917Z,63.7
2023-04-01T04:44:29.984Z,63.6
2023-04-01T04:45:32.808Z,63.7
2023-04-01T04:46:33.847Z,63.6
2023-04-01T04:47:35.701Z,63.7
2023-04-01T04:48:36.987Z,63.5
2023-04-01T04:49:38.533Z,63.8
2023-04-01T04:50:39.865Z,64
2023-04-01T04:51:41.573Z,64.2
2023-04-01T04:52:42.627Z,64
2023-04-01T04:53:44.347Z,63.9
2023-04-01T04:54:45.667Z,64.1
2023-04-01T04:55:46.611Z,64.3
2023-04-01T04:56:47.672Z,64.2
2023-04-01T04:57:48.589Z,64.1
2023-04-01T04:58:49.614Z,64.2
2023-04-01T04:59:50.718Z,64.2
2023-04-01T05:00:52.405Z,64.4
2023-04-01T05:01:54.304Z,64.1
2023-04-01T05:02:55.705Z,64.2
2023-04-01T05:03:56.586Z,64.3
2023-04-01T05:04:57.710Z,64.3
2023-04-01T05:05:59.647Z,64.6
2023-04-01T05:07:01.102Z,64
2023-04-01T05:08:02.726Z,64.6
2023-04-01T05:09:03.583Z,64.6
2023-04-01T05:10:04.568Z,64.6
2023-04-01T05:11:05.715Z,64.7
2023-04-01T05:12:06.565Z,64.3
2023-04-01T05:13:07.566Z,64.5
2023-04-01T05:14:08.519Z,64.5
2023-04-01T05:15:09.563Z,64.4
2023-04-01T05:16:10.609Z,64.3
2023-04-01T05:17:11.749Z,63.9
2023-04-01T05:18:12.834Z,64.3
2023-04-01T05:19:15.357Z,64.1
2023-04-01T05:20:17.172Z,63.8
2023-04-01T05:21:19.217Z,64.1
2023-04-01T05:22:21.418Z,64.2
2023-04-01T05:23:22.590Z,64.6
2023-04-01T05:24:23.636Z,64.5
2023-04-01T05:25:24.611Z,64.4
2023-04-01T05:26:26.163Z,64.6
2023-04-01T05:27:27.578Z,64.5
2023-04-01T05:28:28.622Z,64.6
2023-04-01T05:29:29.783Z,64.6
2023-04-01T05:30:31.745Z,64.6
2023-04-01T05:31:32.719Z,64.8
2023-04-01T05:32:33.678Z,65.1
2023-04-01T05:33:34.614Z,65
2023-04-01T05:34:35.606Z,64.8
2023-04-01T05:35:36.769Z,64.8
2023-04-01T05:36:37.613Z,64.7
2023-04-01T05:37:39.471Z,64.5
2023-04-01T05:38:42.347Z,64.7
2023-04-01T05:39:43.619Z,64.5
2023-04-01T05:40:44.689Z,64.7
2023-04-01T05:41:45.565Z,64.8
2023-04-01T05:42:47.583Z,64.9
2023-04-01T05:43:50.396Z,65
2023-04-01T05:44:51.845Z,65.1
2023-04-01T05:45:53.644Z,65.3
2023-04-01T05:46:54.661Z,65.4
2023-04-01T05:47:56.319Z,65.3
2023-04-01T05:48:57.897Z,65.2
2023-04-01T05:50:00.496Z,65.2
2023-04-01T05:51:02.268Z,65
2023-04-01T05:52:04.465Z,65
2023-04-01T05:53:05.652Z,65.1
2023-04-01T05:54:07.108Z,64.8
2023-04-01T05:55:08.613Z,65.2
2023-04-01T05:56:09.968Z,65.6
2023-04-01T05:57:11.898Z,65.7
2023-04-01T05:58:14.624Z,65.8
2023-04-01T05:59:16.304Z,65.8
2023-04-01T06:00:17.731Z,65.7
2023-04-01T06:01:18.816Z,65.9
2023-04-01T06:02:21.081Z,65.6
2023-04-01T06:03:23.393Z,65.8
2023-04-01T06:04:25.509Z,66.1
2023-04-01T06:05:27.104Z,66
2023-04-01T06:06:29.625Z,65.8
2023-04-01T06:07:30.721Z,65.6
2023-04-01T06:08:32.109Z,65.4
2023-04-01T06:09:33.995Z,65.3
2023-04-01T06:10:36.145Z,65.2
2023-04-01T06:11:37.972Z,65.3
2023-04-01T06:12:40.491Z,65.1
2023-04-01T06:13:42.123Z,65.1
2023-04-01T06:14:43.621Z,65
2023-04-01T06:15:44.768Z,65
2023-04-01T06:16:46.552Z,65.1
2023-04-01T06:17:48.130Z,64.9
2023-04-01T06:18:49.962Z,65.4
2023-04-01T06:19:52.449Z,65.5
2023-04-01T06:20:53.828Z,65.7
2023-04-01T06:21:54.764Z,65.6
2023-04-01T06:22:55.885Z,65.6
2023-04-01T06:23:57.793Z,65.6
2023-04-01T06:24:59.037Z,65.4
2023-04-01T06:26:00.617Z,65.5
2023-04-01T06:27:01.987Z,65.5
2023-04-01T06:28:03.665Z,65.1
2023-04-01T06:29:04.665Z,65.3
2023-04-01T06:30:06.479Z,65.4
2023-04-01T06:31:08.483Z,65.5
2023-04-01T06:32:09.811Z,65.5
2023-04-01T06:33:11.207Z,65.6
2023-04-01T06:34:12.614Z,65.7
2023-04-01T06:35:13.608Z,65.8
2023-04-01T06:36:14.725Z,65.6
2023-04-01T06:37:15.684Z,65.4
2023-04-01T06:38:17.310Z,65.6
2023-04-01T06:39:18.725Z,65.1
2023-04-01T06:40:19.606Z,65.4
2023-04-01T06:41:20.615Z,65.3
2023-04-01T06:42:21.732Z,64.6
2023-04-01T06:43:22.598Z,64.8
2023-04-01T06:44:23.946Z,64.9
2023-04-01T06:45:25.875Z,64.7
2023-04-01T06:46:27.751Z,64.2
2023-04-01T06:47:28.592Z,64.3
2023-04-01T06:48:29.666Z,64.3
2023-04-01T06:49:30.846Z,64.4
2023-04-01T06:50:33.268Z,64.4
2023-04-01T06:51:34.553Z,64.4
2023-04-01T06:52:35.969Z,64.3
2023-04-01T06:53:37.966Z,64.1
2023-04-01T06:54:40.087Z,64.2
2023-04-01T06:55:42.227Z,64.4
2023-04-01T06:56:44.217Z,64.3
2023-04-01T06:57:45.716Z,64.3
2023-04-01T06:58:46.673Z,64.4
2023-04-01T06:59:47.608Z,64.5
2023-04-01T07:00:48.870Z,64.5
2023-04-01T07:01:49.949Z,64.4
2023-04-01T07:02:51.042Z,64.6
2023-04-01T07:03:52.809Z,64.7
2023-04-01T07:04:54.186Z,64.8
2023-04-01T07:05:56.188Z,64.9
2023-04-01T07:06:58.045Z,65.1
2023-04-01T07:07:59.665Z,65.1
2023-04-01T07:09:01.837Z,65.2
2023-04-01T07:10:02.794Z,65
2023-04-01T07:11:03.721Z,65.3
2023-04-01T07:12:04.773Z,66.1
2023-04-01T07:13:05.879Z,66.7
2023-04-01T07:14:07.923Z,66.8
2023-04-01T07:15:10.323Z,66.6
2023-04-01T07:16:11.848Z,66.1
2023-04-01T07:17:13.885Z,65.9
2023-04-01T07:18:14.611Z,66
2023-04-01T07:19:16.430Z,65.9
2023-04-01T07:20:17.664Z,66
2023-04-01T07:21:18.827Z,66
2023-04-01T07:22:19.666Z,66.1
2023-04-01T07:23:20.600Z,66.1
2023-04-01T07:24:21.798Z,65.8
2023-04-01T07:25:23.200Z,65.7
2023-04-01T07:26:25.622Z,65.7
2023-04-01T07:27:26.719Z,65.8
2023-04-01T07:28:28.155Z,65.8
2023-04-01T07:29:29.591Z,65.7
2023-04-01T07:30:31.334Z,65.6
2023-04-01T07:31:33.045Z,65.6
2023-04-01T07:32:36.245Z,65.6
2023-04-01T07:33:36.620Z,65.5
2023-04-01T07:34:37.982Z,65.8
2023-04-01T07:35:40.493Z,65.7
2023-04-01T07:36:41.784Z,66
2023-04-01T07:37:42.798Z,66.1
2023-04-01T07:38:44.036Z,66
2023-04-01T07:39:45.643Z,66.5
2023-04-01T07:40:46.709Z,67.1
2023-04-01T07:41:47.607Z,67.1
2023-04-01T07:42:48.800Z,66.6
2023-04-01T07:43:49.667Z,67
2023-04-01T07:44:50.558Z,67
2023-04-01T07:45:51.696Z,67
2023-04-01T07:46:52.595Z,66.9
2023-04-01T07:47:53.658Z,67.1
2023-04-01T07:48:54.646Z,67.6
2023-04-01T07:49:55.777Z,67.9
2023-04-01T07:50:56.716Z,67.8
2023-04-01T07:51:57.705Z,67.7
2023-04-01T07:52:58.700Z,67.4
2023-04-01T07:53:59.644Z,67.3
2023-04-01T07:55:00.685Z,67.1
2023-04-01T07:56:01.665Z,66.9
2023-04-01T07:57:02.791Z,67.1
2023-04-01T07:58:03.893Z,67
2023-04-01T07:59:05.688Z,67.5
2023-04-01T08:00:06.644Z,67.8
2023-04-01T08:01:07.854Z,67.4
2023-04-01T08:02:08.746Z,67.4
2023-04-01T08:03:09.742Z,67.3
2023-04-01T08:04:10.885Z,66.9
2023-04-01T08:05:11.655Z,66.3
2023-04-01T08:06:12.837Z,66.5
2023-04-01T08:07:14.503Z,66.4
2023-04-01T08:08:15.797Z,66.3
2023-04-01T08:09:16.743Z,66.1
2023-04-01T08:10:18.768Z,66
2023-04-01T08:11:21.185Z,65.7
2023-04-01T08:12:22.908Z,66
2023-04-01T08:13:23.715Z,66.1
2023-04-01T08:14:24.791Z,65.9
2023-04-01T08:15:25.779Z,66.6
2023-04-01T08:16:27.109Z,66.7
2023-04-01T08:17:28.957Z,66.8
2023-04-01T08:18:30.933Z,67.1
2023-04-01T08:19:33.020Z,66.5
2023-04-01T08:20:34.733Z,66.8
2023-04-01T08:21:35.915Z,67
2023-04-01T08:22:38.059Z,66.7
2023-04-01T08:23:39.921Z,66.5
2023-04-01T08:24:47.428Z,66.5
2023-04-01T08:25:43.716Z,66.4
2023-04-01T08:26:44.780Z,65.7
2023-04-01T08:27:45.620Z,65.7
2023-04-01T08:28:46.709Z,66.1
2023-04-01T08:29:47.729Z,65.9
2023-04-01T08:30:48.647Z,66.2
2023-04-01T08:31:49.715Z,65.9
2023-04-01T08:32:50.908Z,65.8
2023-04-01T08:33:51.676Z,66
2023-04-01T08:34:52.648Z,66.8
2023-04-01T08:35:53.658Z,67.8
2023-04-01T08:36:55.472Z,67.8
2023-04-01T08:37:57.000Z,67.8
2023-04-01T08:38:59.103Z,67.7
2023-04-01T08:40:00.699Z,67.8
2023-04-01T08:41:01.636Z,67.3
2023-04-01T08:43:09.841Z,66.6
2023-04-01T08:44:10.878Z,66.7
2023-04-01T08:45:14.503Z,66.5
2023-04-01T08:46:14.932Z,66.3
2023-04-01T08:47:16.982Z,66.2
2023-04-01T08:48:19.228Z,66.3
2023-04-01T08:49:21.029Z,66.3
2023-04-01T08:50:22.824Z,66.1
2023-04-01T08:51:23.720Z,66
2023-04-01T08:52:25.798Z,65.7
2023-04-01T08:53:27.121Z,65.6
2023-04-01T08:54:28.627Z,65.9
2023-04-01T08:55:29.681Z,66.1
2023-04-01T08:56:30.783Z,66
2023-04-01T08:57:31.846Z,66.1
2023-04-01T08:58:32.650Z,66.2
2023-04-01T08:59:33.822Z,66
2023-04-01T09:00:34.996Z,65.9
2023-04-01T09:01:37.047Z,65.7
2023-04-01T09:02:39.072Z,66.1
2023-04-01T09:03:41.614Z,66.5
2023-04-01T09:04:42.643Z,66.7
2023-04-01T09:05:43.722Z,66.5
2023-04-01T09:06:44.634Z,65.9
2023-04-01T09:07:45.779Z,65.7
2023-04-01T09:08:46.742Z,65.4
2023-04-01T09:09:47.641Z,65.3
2023-04-01T09:10:48.847Z,64.9
2023-04-01T09:11:51.626Z,64.8
2023-04-01T09:12:52.781Z,64.5
2023-04-01T09:13:54.088Z,64.8
2023-04-01T09:14:55.982Z,64.6
2023-04-01T09:15:57.852Z,65.1
2023-04-01T09:16:58.881Z,65.2
2023-04-01T09:17:59.945Z,65
2023-04-01T09:19:01.364Z,64.9
2023-04-01T09:20:04.041Z,64.3
2023-04-01T09:21:06.362Z,63.8
2023-04-01T09:22:08.008Z,63.8
2023-04-01T09:23:10.156Z,63.7
2023-04-01T09:24:12.485Z,63.4
2023-04-01T09:25:13.659Z,63.6
2023-04-01T09:26:14.633Z,64.4
2023-04-01T09:27:15.636Z,64.6
2023-04-01T09:28:17.621Z,64.5
2023-04-01T09:29:18.886Z,65.1
2023-04-01T09:30:20.233Z,65.3
2023-04-01T09:31:22.167Z,65.5
2023-04-01T09:32:24.657Z,64.9
2023-04-01T09:33:25.692Z,64.3
2023-04-01T09:34:26.965Z,63.5
2023-04-01T09:35:28.982Z,63.1
2023-04-01T09:36:31.350Z,64
2023-04-01T09:37:32.935Z,64.6
2023-04-01T09:38:34.672Z,64.8
2023-04-01T09:39:35.758Z,64.1
2023-04-01T09:40:36.955Z,63.7
2023-04-01T09:41:37.694Z,63.7
2023-04-01T09:42:38.711Z,63.9
2023-04-01T09:43:39.686Z,63.2
2023-04-01T09:44:42.474Z,63.3
2023-04-01T09:45:42.918Z,63.5
2023-04-01T09:46:43.912Z,63
2023-04-01T09:47:44.874Z,62.6
2023-04-01T09:48:46.257Z,62.9
2023-04-01T09:49:47.832Z,63
2023-04-01T09:50:48.679Z,62.4
2023-04-01T09:51:49.682Z,62
2023-04-01T09:52:50.746Z,61.9
2023-04-01T09:53:52.037Z,61.2
2023-04-01T09:54:53.812Z,61.7
2023-04-01T09:55:55.406Z,62.1
2023-04-01T09:56:57.331Z,62.2
2023-04-01T09:57:58.907Z,61.9
2023-04-01T09:59:00.772Z,61.7
2023-04-01T10:00:02.093Z,62.6
2023-04-01T10:01:04.020Z,62.7
2023-04-01T10:02:06.182Z,62.2
2023-04-01T10:03:07.878Z,62
2023-04-01T10:04:09.240Z,62.4
2023-04-01T10:05:10.779Z,62.7
2023-04-01T10:06:12.096Z,62.4
2023-04-01T10:07:13.937Z,62.1
2023-04-01T10:08:15.661Z,61.9
2023-04-01T10:09:16.884Z,62.1
2023-04-01T10:10:17.824Z,62.2
2023-04-01T10:11:19.017Z,62.8
2023-04-01T10:12:19.766Z,63.1
2023-04-01T10:13:21.051Z,63
2023-04-01T10:14:22.898Z,62.5
2023-04-01T10:15:24.349Z,63
2023-04-01T10:16:26.465Z,63.4
2023-04-01T10:17:28.007Z,63.5
2023-04-01T10:18:28.908Z,63.3
2023-04-01T10:19:29.714Z,63.5
2023-04-01T10:20:31.454Z,63.2
2023-04-01T10:21:32.686Z,62.8
2023-04-01T10:22:33.732Z,62.1
2023-04-01T10:23:34.685Z,61.7
2023-04-01T10:24:35.748Z,61.4
2023-04-01T10:25:36.736Z,61.7
2023-04-01T10:26:38.280Z,61.4
2023-04-01T10:27:39.728Z,60.8
2023-04-01T10:28:40.706Z,60
2023-04-01T10:29:41.732Z,60.4
2023-04-01T10:30:42.884Z,60.2
2023-04-01T10:31:43.764Z,59.3
2023-04-01T10:32:44.888Z,59.2
2023-04-01T10:33:45.745Z,58.4
2023-04-01T10:34:46.762Z,57.4
2023-04-01T10:35:48.084Z,56.2
2023-04-01T10:36:48.964Z,56.6
2023-04-01T10:37:49.731Z,56.6
2023-04-01T10:38:50.685Z,56.2
2023-04-01T10:39:51.724Z,56
2023-04-01T10:40:52.920Z,55.7
2023-04-01T10:41:54.536Z,56.2
2023-04-01T10:42:55.722Z,56.5
2023-04-01T10:43:56.714Z,56.7
2023-04-01T10:44:57.681Z,56.6
2023-04-01T10:45:59.106Z,56.8
2023-04-01T10:47:00.722Z,56.5
2023-04-01T10:48:01.772Z,56.9
2023-04-01T10:49:02.763Z,57.3
2023-04-01T10:50:03.723Z,58.2
2023-04-01T10:51:04.792Z,58.7
2023-04-01T10:52:05.713Z,58.5
2023-04-01T10:53:07.380Z,58.3
2023-04-01T10:54:08.212Z,58.2
2023-04-01T10:55:09.961Z,58.3
2023-04-01T10:56:11.826Z,58.3
2023-04-01T10:57:13.045Z,58
2023-04-01T10:58:15.342Z,58.4
2023-04-01T10:59:17.144Z,59.5
2023-04-01T11:00:21.625Z,59.9
2023-04-01T11:01:22.810Z,60
2023-04-01T11:02:23.970Z,59.8
2023-04-01T11:03:25.110Z,59.9
2023-04-01T11:04:26.656Z,59.4
2023-04-01T11:05:27.787Z,59.8
2023-04-01T11:06:28.762Z,58.9
2023-04-01T11:07:29.763Z,57.6
2023-04-01T11:08:31.003Z,57.7
2023-04-01T11:09:32.782Z,57.4
2023-04-01T11:10:33.732Z,57.1
2023-04-01T11:11:34.782Z,57.5
2023-04-01T11:12:35.944Z,57.5
2023-04-01T11:13:37.162Z,57.9
2023-04-01T11:14:38.745Z,57.3
2023-04-01T11:15:39.868Z,56.4
2023-04-01T11:16:41.977Z,56.1
2023-04-01T11:17:43.411Z,56.1
2023-04-01T11:18:44.958Z,57
2023-04-01T11:19:45.863Z,57.5
2023-04-01T11:20:46.757Z,57.3
2023-04-01T11:21:48.095Z,56.6
2023-04-01T11:22:49.853Z,56.5
2023-04-01T11:24:02.147Z,56.5
2023-04-01T11:24:51.816Z,56.4
2023-04-01T11:25:53.613Z,56.4
2023-04-01T11:26:55.443Z,56.3
2023-04-01T11:27:57.304Z,56.3
2023-04-01T11:28:58.659Z,56.3
2023-04-01T11:30:00.729Z,57.1
2023-04-01T11:31:01.374Z,58
2023-04-01T11:32:03.183Z,58.6
2023-04-01T11:33:05.834Z,59
2023-04-01T11:34:07.302Z,59
2023-04-01T11:35:08.753Z,59
2023-04-01T11:36:09.822Z,59.3
2023-04-01T11:37:10.872Z,59.7
2023-04-01T11:38:13.022Z,60
2023-04-01T11:39:14.778Z,60.1
2023-04-01T11:40:15.785Z,59.7
2023-04-01T11:41:17.084Z,60.2
2023-04-01T11:42:19.682Z,60.7
2023-04-01T11:43:30.318Z,60.9
2023-04-01T11:44:21.961Z,60.8
2023-04-01T11:45:22.990Z,60.9
2023-04-01T11:46:25.228Z,61
2023-04-01T11:47:27.978Z,60
2023-04-01T11:48:28.748Z,61
2023-04-01T11:49:30.020Z,61.4
2023-04-01T11:50:31.843Z,61
2023-04-01T11:51:33.437Z,61
2023-04-01T11:52:35.333Z,61.6
2023-04-01T11:53:36.991Z,61.7
2023-04-01T11:54:38.801Z,61.4
2023-04-01T11:55:39.782Z,61.4
2023-04-01T11:56:41.078Z,61.3
2023-04-01T11:57:42.765Z,61.5
2023-04-01T11:58:43.784Z,61.9
2023-04-01T11:59:45.018Z,62.1
2023-04-01T12:00:46.963Z,61.8
2023-04-01T12:01:47.827Z,61.7
2023-04-01T12:02:49.130Z,62
2023-04-01T12:03:56.434Z,62
2023-04-01T12:04:58.136Z,61.8
2023-04-01T12:05:59.452Z,61.6
2023-04-01T12:07:01.107Z,61.7
2023-04-01T12:08:03.010Z,61.7
2023-04-01T12:09:05.207Z,61.9
2023-04-01T12:10:07.357Z,62.1
2023-04-01T12:11:09.176Z,61.9
2023-04-01T12:12:11.122Z,62.4
2023-04-01T12:13:12.878Z,62.6
2023-04-01T12:14:14.004Z,62.7
2023-04-01T12:15:15.991Z,63.2
2023-04-01T12:16:17.020Z,63.4
2023-04-01T12:17:18.843Z,63.5
2023-04-01T12:18:20.603Z,63.6
2023-04-01T12:19:22.021Z,63
2023-04-01T12:20:24.270Z,63.3
2023-04-01T12:21:26.988Z,63.6
2023-04-01T12:22:28.264Z,63.3
2023-04-01T12:23:30.001Z,63.7
2023-04-01T12:24:30.908Z,63.6
2023-04-01T12:25:32.130Z,63.6
2023-04-01T12:26:32.953Z,63.6
2023-04-01T12:27:33.842Z,63.5
2023-04-01T12:28:35.164Z,63.2
2023-04-01T12:29:36.804Z,63.4
2023-04-01T12:30:38.449Z,63.3
2023-04-01T12:31:39.925Z,63.3
2023-04-01T12:32:40.785Z,63.5
2023-04-01T12:33:41.904Z,63.8
2023-04-01T12:34:42.714Z,64
2023-04-01T12:35:43.917Z,63.8
2023-04-01T12:36:44.924Z,63.9
2023-04-01T12:37:45.983Z,63.9
2023-04-01T12:38:47.384Z,63.7
2023-04-01T12:39:48.806Z,63
2023-04-01T12:40:49.804Z,63.4
2023-04-01T12:41:50.764Z,63.7
2023-04-01T12:42:51.726Z,63.9
2023-04-01T12:43:52.864Z,63.9
2023-04-01T12:44:54.543Z,64
2023-04-01T12:45:55.859Z,63.9
2023-04-01T12:46:56.888Z,63.8
2023-04-01T12:47:57.893Z,63.6
2023-04-01T12:48:59.129Z,63.6
2023-04-01T12:50:00.984Z,63.4
2023-04-01T12:51:01.982Z,63.3
2023-04-01T12:52:03.369Z,62.6
2023-04-01T12:53:05.194Z,62
2023-04-01T12:54:07.475Z,62.2
2023-04-01T12:55:10.494Z,62
2023-04-01T12:56:12.102Z,61.3
2023-04-01T12:57:13.978Z,61.7
2023-04-01T12:58:15.502Z,62.2
2023-04-01T12:59:17.561Z,62.7
2023-04-01T13:00:18.823Z,63
2023-04-01T13:01:19.769Z,63.1
2023-04-01T13:02:21.327Z,62.4
2023-04-01T13:03:22.869Z,62
2023-04-01T13:04:24.078Z,61.2
2023-04-01T13:05:26.495Z,62.1
2023-04-01T13:06:27.908Z,62.8
2023-04-01T13:07:29.090Z,62.4
2023-04-01T13:08:31.131Z,62.4
2023-04-01T13:09:33.200Z,61.7
2023-04-01T13:10:35.097Z,61.7
2023-04-01T13:11:35.888Z,62
2023-04-01T13:12:36.884Z,61.4
2023-04-01T13:13:37.915Z,61
2023-04-01T13:14:38.785Z,61.2
2023-04-01T13:15:40.138Z,61.6
2023-04-01T13:16:41.983Z,62.5
2023-04-01T13:17:43.040Z,62.8
2023-04-01T13:18:43.963Z,62.8
2023-04-01T13:19:57.834Z,61.6
2023-04-01T13:20:47.285Z,61
2023-04-01T13:21:48.884Z,61.9
2023-04-01T13:22:49.922Z,62.4
2023-04-01T13:23:51.178Z,63
2023-04-01T13:24:53.006Z,63
2023-04-01T13:26:02.364Z,62.6
2023-04-01T13:26:55.916Z,62.5
2023-04-01T13:27:56.817Z,62.4
2023-04-01T13:28:58.023Z,61.9
2023-04-01T13:29:59.894Z,60.8
2023-04-01T13:31:02.670Z,61.3
2023-04-01T13:32:04.062Z,61.7
2023-04-01T13:33:05.043Z,61.9
2023-04-01T13:34:06.841Z,61.9
2023-04-01T13:35:08.493Z,62
2023-04-01T13:36:10.297Z,61.9
2023-04-01T13:37:12.589Z,62
2023-04-01T13:38:14.213Z,60.9
2023-04-01T13:39:16.366Z,61.5
2023-04-01T13:40:18.004Z,61.4
2023-04-01T13:41:18.765Z,61.3
2023-04-01T13:42:19.887Z,61.3
2023-04-01T13:43:21.051Z,61.3